createdAt,value
2023-04-08T00:00:10.789Z,79.47
2023-04-08T00:00:22.851Z,79.81
2023-04-08T00:00:34.768Z,79.65
2023-04-08T00:00:46.706Z,79.84
2023-04-08T00:00:58.637Z,79.71
2023-04-08T00:01:10.953Z,79.59
2023-04-08T00:01:22.858Z,79.98
2023-04-08T00:01:34.978Z,79.81
2023-04-08T00:01:47.177Z,79.72
2023-04-08T00:01:59.269Z,79.80
2023-04-08T00:02:12.058Z,79.94
2023-04-08T00:02:24.145Z,79.82
2023-04-08T00:02:36.312Z,79.85
2023-04-08T00:02:48.473Z,79.96
2023-04-08T00:03:02.120Z,79.77
2023-04-08T00:03:14.238Z,79.84
2023-04-08T00:03:26.706Z,79.68
2023-04-08T00:03:40.020Z,79.76
2023-04-08T00:03:52.248Z,79.64
2023-04-08T00:04:04.582Z,79.71
2023-04-08T00:04:16.859Z,79.56
2023-04-08T00:04:28.962Z,79.63
2023-04-08T00:04:41.426Z,79.59
2023-04-08T00:04:53.457Z,79.69
2023-04-08T00:05:06.674Z,79.46
2023-04-08T00:05:18.609Z,79.48
2023-04-08T00:05:30.545Z,79.48
2023-04-08T00:05:42.493Z,79.39
2023-04-08T00:05:54.523Z,79.56
2023-04-08T00:06:06.940Z,79.89
2023-04-08T00:06:18.835Z,79.62
2023-04-08T00:06:31.561Z,79.85
2023-04-08T00:06:48.528Z,79.79
2023-04-08T00:07:00.625Z,79.62
2023-04-08T00:07:13.146Z,79.75
2023-04-08T00:07:25.336Z,79.51
2023-04-08T00:07:37.544Z,79.80
2023-04-08T00:07:49.491Z,79.85
2023-04-08T00:08:01.388Z,79.69
2023-04-08T00:08:13.573Z,79.86
2023-04-08T00:08:25.504Z,79.54
2023-04-08T00:08:37.431Z,79.97
2023-04-08T00:08:50.739Z,79.84
2023-04-08T00:09:03.408Z,79.76
2023-04-08T00:09:15.345Z,79.77
2023-04-08T00:09:27.279Z,79.76
2023-04-08T00:09:39.222Z,79.87
2023-04-08T00:09:51.371Z,79.97
2023-04-08T00:10:03.970Z,79.85
2023-04-08T00:10:16.253Z,79.63
2023-04-08T00:10:28.251Z,79.81
2023-04-08T00:10:40.197Z,79.66
2023-04-08T00:10:52.200Z,79.73
2023-04-08T00:11:04.206Z,79.77
2023-04-08T00:11:16.179Z,79.85
2023-04-08T00:11:28.093Z,79.73
2023-04-08T00:11:40.726Z,79.73
2023-04-08T00:12:13.154Z,79.74
2023-04-08T00:12:25.250Z,79.63
2023-04-08T00:12:37.245Z,79.65
2023-04-08T00:12:49.189Z,79.56
2023-04-08T00:13:01.265Z,79.62
2023-04-08T00:13:13.600Z,79.41
2023-04-08T00:13:26.386Z,79.15
2023-04-08T00:13:38.293Z,79.50
2023-04-08T00:13:50.237Z,79.48
2023-04-08T00:14:03.754Z,79.43
2023-04-08T00:14:15.871Z,79.30
2023-04-08T00:14:27.924Z,79.29
2023-04-08T00:14:41.492Z,79.37
2023-04-08T00:14:53.404Z,79.16
2023-04-08T00:15:05.990Z,79.09
2023-04-08T00:15:17.969Z,79.10
2023-04-08T00:15:30.275Z,79.42
2023-04-08T00:15:42.287Z,79.35
2023-04-08T00:15:54.222Z,79.33
2023-04-08T00:16:06.239Z,79.41
2023-04-08T00:16:18.442Z,79.25
2023-04-08T00:16:30.806Z,79.56
2023-04-08T00:16:42.751Z,79.29
2023-04-08T00:16:54.979Z,79.37
2023-04-08T00:17:07.661Z,79.22
2023-04-08T00:17:19.677Z,79.20
2023-04-08T00:17:31.771Z,79.23
2023-04-08T00:17:43.818Z,78.90
2023-04-08T00:17:55.975Z,79.07
2023-04-08T00:18:08.389Z,79.19
2023-04-08T00:18:20.489Z,79.22
2023-04-08T00:18:32.567Z,79.02
2023-04-08T00:18:44.453Z,79.00
2023-04-08T00:18:56.715Z,78.83
2023-04-08T00:19:08.621Z,79.15
2023-04-08T00:19:21.025Z,78.80
2023-04-08T00:19:35.148Z,79.09
2023-04-08T00:19:48.083Z,79.01
2023-04-08T00:20:00.219Z,78.98
2023-04-08T00:20:12.208Z,78.90
2023-04-08T00:20:24.546Z,78.74
2023-04-08T00:20:36.537Z,78.71
2023-04-08T00:20:49.104Z,78.68
2023-04-08T00:21:01.128Z,78.70
2023-04-08T00:21:14.410Z,78.89
2023-04-08T00:21:27.094Z,78.88
2023-04-08T00:21:39.038Z,78.90
2023-04-08T00:21:51.245Z,78.61
2023-04-08T00:22:03.347Z,78.87
2023-04-08T00:22:15.408Z,78.74
2023-04-08T00:22:27.385Z,78.90
2023-04-08T00:22:39.404Z,79.00
2023-04-08T00:22:51.452Z,79.17
2023-04-08T00:23:03.412Z,79.04
2023-04-08T00:23:15.496Z,79.08
2023-04-08T00:23:27.426Z,79.06
2023-04-08T00:23:39.569Z,79.12
2023-04-08T00:23:51.692Z,78.96
2023-04-08T00:24:03.970Z,79.03
2023-04-08T00:24:16.576Z,78.95
2023-04-08T00:24:28.662Z,79.01
2023-04-08T00:24:40.846Z,78.93
2023-04-08T00:24:52.855Z,78.89
2023-04-08T00:25:09.430Z,79.16
2023-04-08T00:25:23.395Z,79.03
2023-04-08T00:25:36.833Z,79.12
2023-04-08T00:25:48.809Z,79.00
2023-04-08T00:26:01.001Z,79.05
2023-04-08T00:26:12.980Z,79.25
2023-04-08T00:26:24.861Z,79.05
2023-04-08T00:26:37.813Z,78.89
2023-04-08T00:26:49.835Z,79.04
2023-04-08T00:27:03.132Z,79.21
2023-04-08T00:27:15.454Z,79.08
2023-04-08T00:27:27.470Z,78.84
2023-04-08T00:27:39.424Z,78.86
2023-04-08T00:27:51.689Z,78.81
2023-04-08T00:28:03.925Z,78.94
2023-04-08T00:28:15.908Z,78.74
2023-04-08T00:28:27.845Z,78.47
2023-04-08T00:28:39.793Z,78.88
2023-04-08T00:28:52.141Z,79.06
2023-04-08T00:29:04.226Z,78.82
2023-04-08T00:29:16.203Z,78.93
2023-04-08T00:29:28.462Z,78.86
2023-04-08T00:29:40.400Z,78.78
2023-04-08T00:29:52.381Z,78.88
2023-04-08T00:30:04.877Z,78.88
2023-04-08T00:30:17.061Z,78.69
2023-04-08T00:30:29.057Z,78.68
2023-04-08T00:30:41.086Z,78.52
2023-04-08T00:30:53.420Z,78.57
2023-04-08T00:31:05.546Z,78.40
2023-04-08T00:31:17.582Z,78.60
2023-04-08T00:31:29.645Z,78.75
2023-04-08T00:31:42.006Z,78.78
2023-04-08T00:31:54.262Z,78.63
2023-04-08T00:32:06.360Z,78.81
2023-04-08T00:32:21.470Z,78.93
2023-04-08T00:32:33.518Z,78.57
2023-04-08T00:32:45.878Z,79.05
2023-04-08T00:32:58.233Z,78.65
2023-04-08T00:33:10.422Z,78.77
2023-04-08T00:33:24.952Z,78.97
2023-04-08T00:33:36.958Z,78.75
2023-04-08T00:33:49.149Z,78.77
2023-04-08T00:34:01.123Z,79.00
2023-04-08T00:34:13.338Z,78.88
2023-04-08T00:34:25.335Z,78.89
2023-04-08T00:34:37.255Z,78.53
2023-04-08T00:34:49.383Z,78.62
2023-04-08T00:35:02.500Z,78.85
2023-04-08T00:35:14.542Z,78.90
2023-04-08T00:35:26.793Z,78.78
2023-04-08T00:35:38.820Z,78.60
2023-04-08T00:35:51.091Z,78.79
2023-04-08T00:36:03.237Z,79.21
2023-04-08T00:36:15.175Z,78.72
2023-04-08T00:36:27.696Z,78.42
2023-04-08T00:36:40.278Z,78.47
2023-04-08T00:36:52.308Z,78.40
2023-04-08T00:37:04.344Z,78.40
2023-04-08T00:37:16.254Z,78.38
2023-04-08T00:37:31.804Z,78.64
2023-04-08T00:37:43.692Z,78.54
2023-04-08T00:37:55.860Z,78.51
2023-04-08T00:38:08.489Z,78.70
2023-04-08T00:38:20.541Z,78.57
2023-04-08T00:38:32.606Z,78.64
2023-04-08T00:38:44.594Z,78.49
2023-04-08T00:38:56.600Z,78.48
2023-04-08T00:39:08.621Z,78.73
2023-04-08T00:39:21.055Z,78.39
2023-04-08T00:39:33.050Z,78.50
2023-04-08T00:39:45.423Z,78.28
2023-04-08T00:39:57.378Z,78.32
2023-04-08T00:40:09.836Z,78.11
2023-04-08T00:40:21.792Z,78.21
2023-04-08T00:40:35.323Z,78.05
2023-04-08T00:40:47.341Z,77.98
2023-04-08T00:40:59.528Z,78.10
2023-04-08T00:41:11.432Z,78.09
2023-04-08T00:41:23.589Z,78.20
2023-04-08T00:41:36.128Z,78.38
2023-04-08T00:41:48.072Z,78.29
2023-04-08T00:42:01.761Z,78.25
2023-04-08T00:42:13.734Z,78.17
2023-04-08T00:42:25.673Z,78.52
2023-04-08T00:42:37.593Z,78.53
2023-04-08T00:42:49.539Z,78.46
2023-04-08T00:43:01.579Z,78.45
2023-04-08T00:43:13.544Z,77.71
2023-04-08T00:43:25.503Z,78.11
2023-04-08T00:43:37.442Z,77.77
2023-04-08T00:43:49.353Z,77.96
2023-04-08T00:44:01.466Z,78.00
2023-04-08T00:44:13.400Z,78.09
2023-04-08T00:44:25.400Z,78.22
2023-04-08T00:44:37.379Z,78.19
2023-04-08T00:44:49.437Z,78.32
2023-04-08T00:45:01.716Z,78.40
2023-04-08T00:45:13.937Z,78.53
2023-04-08T00:45:25.907Z,77.86
2023-04-08T00:45:37.938Z,78.26
2023-04-08T00:45:50.119Z,78.27
2023-04-08T00:46:02.184Z,78.06
2023-04-08T00:46:15.381Z,78.45
2023-04-08T00:46:27.944Z,78.80
2023-04-08T00:46:40.694Z,78.80
2023-04-08T00:46:52.789Z,78.87
2023-04-08T00:47:04.831Z,78.79
2023-04-08T00:47:16.834Z,78.63
2023-04-08T00:47:29.205Z,78.45
2023-04-08T00:47:41.321Z,78.35
2023-04-08T00:47:53.293Z,78.59
2023-04-08T00:48:05.398Z,78.58
2023-04-08T00:48:17.420Z,78.55
2023-04-08T00:48:29.772Z,78.50
2023-04-08T00:48:41.685Z,78.57
2023-04-08T00:48:54.755Z,78.68
2023-04-08T00:49:07.449Z,78.88
2023-04-08T00:49:19.564Z,78.68
2023-04-08T00:49:32.176Z,78.55
2023-04-08T00:49:45.932Z,78.19
2023-04-08T00:49:58.010Z,78.35
2023-04-08T00:50:10.809Z,78.83
2023-04-08T00:50:22.906Z,78.98
2023-04-08T00:50:34.962Z,79.51
2023-04-08T00:50:47.290Z,78.91
2023-04-08T00:50:59.235Z,78.96
2023-04-08T00:51:12.464Z,78.94
2023-04-08T00:51:24.412Z,78.85
2023-04-08T00:51:36.796Z,78.84
2023-04-08T00:51:48.720Z,78.19
2023-04-08T00:52:00.827Z,78.43
2023-04-08T00:52:13.571Z,78.59
2023-04-08T00:52:25.829Z,78.59
2023-04-08T00:52:49.446Z,78.80
2023-04-08T00:53:01.428Z,78.57
2023-04-08T00:53:18.670Z,78.52
2023-04-08T00:53:31.503Z,78.87
2023-04-08T00:53:43.429Z,78.77
2023-04-08T00:53:55.835Z,78.89
2023-04-08T00:54:07.800Z,78.78
2023-04-08T00:54:19.808Z,78.70
2023-04-08T00:54:31.799Z,78.77
2023-04-08T00:54:43.786Z,78.63
2023-04-08T00:54:55.957Z,78.29
2023-04-08T00:55:07.874Z,78.55
2023-04-08T00:55:19.799Z,78.49
2023-04-08T00:55:31.796Z,78.58
2023-04-08T00:55:43.857Z,78.19
2023-04-08T00:55:55.842Z,78.63
2023-04-08T00:56:07.771Z,78.33
2023-04-08T00:56:19.819Z,78.41
2023-04-08T00:56:32.939Z,78.15
2023-04-08T00:56:45.269Z,78.20
2023-04-08T00:57:00.226Z,78.30
2023-04-08T00:57:12.322Z,78.20
2023-04-08T00:57:24.646Z,78.16
2023-04-08T00:57:36.634Z,77.97
2023-04-08T00:57:51.383Z,77.99
2023-04-08T00:58:03.460Z,77.81
2023-04-08T00:58:18.690Z,77.89
2023-04-08T00:58:30.939Z,77.86
2023-04-08T00:58:42.863Z,77.97
2023-04-08T00:58:55.602Z,77.84
2023-04-08T00:59:07.552Z,77.82
2023-04-08T00:59:19.610Z,77.86
2023-04-08T00:59:32.148Z,77.91
2023-04-08T00:59:44.319Z,78.13
2023-04-08T00:59:56.251Z,77.91
2023-04-08T01:00:09.553Z,78.05
2023-04-08T01:00:21.562Z,78.25
2023-04-08T01:00:35.924Z,78.38
2023-04-08T01:00:58.476Z,78.52
2023-04-08T01:01:17.357Z,78.43
2023-04-08T01:01:43.227Z,78.39
2023-04-08T01:02:19.008Z,78.18
2023-04-08T01:02:48.858Z,78.19
2023-04-08T01:03:12.907Z,78.33
2023-04-08T01:03:35.371Z,78.26
2023-04-08T01:03:58.110Z,78.36
2023-04-08T01:04:37.841Z,77.92
2023-04-08T01:05:07.814Z,78.45
2023-04-08T01:05:46.220Z,78.25
2023-04-08T01:06:13.371Z,77.99
2023-04-08T01:06:54.338Z,77.85
2023-04-08T01:07:20.161Z,77.69
2023-04-08T01:07:35.389Z,78.13
2023-04-08T01:07:49.110Z,77.94
2023-04-08T01:08:06.158Z,78.32
2023-04-08T01:08:18.339Z,78.51
2023-04-08T01:08:32.411Z,78.48
2023-04-08T01:08:45.748Z,78.65
2023-04-08T01:09:00.404Z,78.93
2023-04-08T01:09:13.680Z,78.77
2023-04-08T01:09:29.935Z,79.02
2023-04-08T01:09:50.248Z,78.80
2023-04-08T01:10:07.680Z,78.65
2023-04-08T01:10:27.258Z,78.84
2023-04-08T01:10:43.004Z,78.97
2023-04-08T01:11:01.868Z,79.04
2023-04-08T01:11:14.349Z,78.76
2023-04-08T01:11:29.185Z,78.93
2023-04-08T01:11:44.124Z,78.83
2023-04-08T01:11:57.952Z,78.63
2023-04-08T01:12:16.504Z,78.62
2023-04-08T01:12:32.868Z,78.73
2023-04-08T01:12:51.876Z,78.75
2023-04-08T01:13:11.823Z,78.42
2023-04-08T01:13:28.362Z,78.57
2023-04-08T01:13:42.243Z,78.49
2023-04-08T01:13:55.803Z,78.42
2023-04-08T01:14:10.157Z,78.30
2023-04-08T01:14:26.596Z,78.46
2023-04-08T01:14:45.125Z,78.57
2023-04-08T01:15:08.272Z,78.46
2023-04-08T01:15:21.961Z,78.31
2023-04-08T01:15:37.388Z,78.30
2023-04-08T01:15:50.450Z,78.37
2023-04-08T01:16:02.724Z,78.30
2023-04-08T01:16:18.028Z,78.10
2023-04-08T01:16:30.205Z,77.94
2023-04-08T01:16:43.702Z,78.19
2023-04-08T01:16:58.706Z,78.62
2023-04-08T01:17:11.342Z,78.02
2023-04-08T01:17:23.750Z,78.21
2023-04-08T01:17:37.852Z,78.00
2023-04-08T01:17:54.426Z,77.85
2023-04-08T01:18:13.614Z,77.79
2023-04-08T01:18:30.876Z,77.53
2023-04-08T01:18:44.944Z,77.77
2023-04-08T01:18:56.976Z,77.47
2023-04-08T01:19:17.695Z,77.38
2023-04-08T01:19:33.247Z,77.64
2023-04-08T01:19:47.525Z,77.30
2023-04-08T01:20:02.032Z,77.40
2023-04-08T01:20:16.295Z,77.48
2023-04-08T01:20:29.618Z,77.75
2023-04-08T01:20:43.181Z,77.71
2023-04-08T01:20:55.772Z,77.88
2023-04-08T01:21:08.497Z,77.54
2023-04-08T01:21:23.648Z,77.68
2023-04-08T01:21:37.813Z,77.50
2023-04-08T01:21:50.800Z,77.67
2023-04-08T01:22:39.364Z,77.77
2023-04-08T01:22:55.118Z,78.09
2023-04-08T01:23:18.195Z,78.28
2023-04-08T01:23:30.089Z,78.19
2023-04-08T01:24:02.176Z,78.05
2023-04-08T01:24:23.391Z,78.30
2023-04-08T01:24:37.516Z,78.09
2023-04-08T01:24:51.074Z,78.01
2023-04-08T01:25:08.645Z,77.99
2023-04-08T01:25:34.880Z,77.83
2023-04-08T01:25:56.452Z,77.42
2023-04-08T01:26:12.155Z,77.33
2023-04-08T01:26:26.555Z,77.30
2023-04-08T01:26:39.694Z,77.31
2023-04-08T01:26:52.021Z,77.22
2023-04-08T01:27:06.318Z,77.23
2023-04-08T01:27:19.261Z,77.04
2023-04-08T01:27:32.930Z,77.27
2023-04-08T01:27:48.316Z,77.14
2023-04-08T01:28:03.625Z,77.01
2023-04-08T01:28:19.200Z,76.92
2023-04-08T01:28:33.656Z,77.19
2023-04-08T01:28:45.718Z,77.06
2023-04-08T01:29:00.854Z,76.60
2023-04-08T01:29:13.892Z,76.79
2023-04-08T01:29:26.244Z,76.75
2023-04-08T01:29:39.477Z,76.71
2023-04-08T01:29:52.590Z,76.97
2023-04-08T01:30:07.800Z,77.02
2023-04-08T01:30:21.985Z,77.48
2023-04-08T01:30:35.725Z,77.51
2023-04-08T01:30:49.767Z,77.63
2023-04-08T01:31:03.245Z,77.62
2023-04-08T01:31:16.119Z,77.28
2023-04-08T01:31:28.862Z,77.13
2023-04-08T01:31:42.956Z,77.18
2023-04-08T01:31:55.478Z,76.83
2023-04-08T01:32:09.803Z,77.05
2023-04-08T01:32:22.011Z,76.87
2023-04-08T01:32:35.260Z,77.06
2023-04-08T01:32:48.018Z,76.83
2023-04-08T01:33:02.144Z,77.08
2023-04-08T01:33:19.013Z,77.04
2023-04-08T01:33:31.723Z,76.96
2023-04-08T01:33:45.549Z,77.11
2023-04-08T01:33:59.650Z,76.55
2023-04-08T01:34:14.149Z,77.06
2023-04-08T01:34:26.320Z,76.96
2023-04-08T01:34:40.915Z,76.97
2023-04-08T01:34:54.274Z,77.07
2023-04-08T01:35:08.006Z,77.48
2023-04-08T01:35:20.467Z,77.11
2023-04-08T01:35:33.248Z,77.16
2023-04-08T01:35:46.270Z,77.34
2023-04-08T01:36:00.487Z,77.29
2023-04-08T01:36:12.853Z,77.21
2023-04-08T01:36:26.215Z,77.26
2023-04-08T01:36:38.882Z,77.36
2023-04-08T01:36:51.936Z,77.36
2023-04-08T01:37:06.011Z,77.73
2023-04-08T01:37:19.203Z,77.80
2023-04-08T01:37:32.757Z,77.83
2023-04-08T01:37:45.688Z,77.69
2023-04-08T01:37:59.032Z,77.46
2023-04-08T01:38:16.582Z,77.82
2023-04-08T01:38:29.458Z,77.74
2023-04-08T01:38:42.334Z,77.54
2023-04-08T01:38:54.745Z,78.21
2023-04-08T01:39:07.811Z,77.71
2023-04-08T01:39:21.585Z,77.70
2023-04-08T01:39:35.550Z,77.56
2023-04-08T01:39:49.725Z,77.78
2023-04-08T01:40:03.185Z,77.75
2023-04-08T01:40:16.794Z,77.58
2023-04-08T01:40:29.857Z,77.42
2023-04-08T01:40:42.640Z,77.47
2023-04-08T01:40:56.203Z,77.17
2023-04-08T01:41:10.562Z,77.41
2023-04-08T01:41:22.739Z,77.50
2023-04-08T01:41:36.724Z,77.58
2023-04-08T01:41:49.571Z,77.50
2023-04-08T01:42:02.744Z,77.68
2023-04-08T01:42:15.854Z,77.57
2023-04-08T01:42:29.809Z,77.56
2023-04-08T01:42:43.018Z,77.45
2023-04-08T01:42:57.626Z,77.42
2023-04-08T01:43:13.109Z,77.22
2023-04-08T01:43:26.651Z,77.30
2023-04-08T01:43:41.052Z,77.10
2023-04-08T01:43:55.262Z,77.33
2023-04-08T01:44:07.928Z,76.91
2023-04-08T01:44:21.618Z,77.04
2023-04-08T01:44:36.044Z,77.23
2023-04-08T01:44:49.397Z,77.20
2023-04-08T01:45:03.385Z,77.22
2023-04-08T01:45:16.632Z,77.10
2023-04-08T01:45:30.637Z,77.29
2023-04-08T01:45:45.462Z,77.14
2023-04-08T01:45:58.623Z,77.01
2023-04-08T01:46:12.823Z,76.80
2023-04-08T01:46:25.941Z,76.69
2023-04-08T01:46:39.720Z,76.67
2023-04-08T01:46:53.900Z,76.63
2023-04-08T01:47:06.492Z,76.92
2023-04-08T01:47:19.075Z,76.72
2023-04-08T01:47:31.759Z,76.67
2023-04-08T01:47:47.541Z,76.62
2023-04-08T01:48:01.142Z,76.58
2023-04-08T01:48:14.887Z,76.60
2023-04-08T01:48:28.446Z,76.93
2023-04-08T01:48:40.778Z,76.80
2023-04-08T01:48:54.188Z,76.94
2023-04-08T01:49:07.504Z,77.00
2023-04-08T01:49:21.213Z,77.20
2023-04-08T01:49:34.108Z,77.51
2023-04-08T01:49:47.059Z,77.46
2023-04-08T01:50:00.498Z,77.42
2023-04-08T01:50:15.095Z,77.56
2023-04-08T01:50:28.909Z,77.87
2023-04-08T01:50:43.054Z,78.07
2023-04-08T01:50:56.743Z,78.00
2023-04-08T01:51:09.301Z,78.23
2023-04-08T01:51:22.527Z,78.27
2023-04-08T01:51:36.308Z,78.58
2023-04-08T01:51:49.438Z,78.10
2023-04-08T01:52:02.273Z,78.63
2023-04-08T01:52:16.490Z,78.61
2023-04-08T01:52:30.305Z,78.43
2023-04-08T01:52:46.161Z,78.60
2023-04-08T01:53:00.145Z,78.58
2023-04-08T01:53:12.852Z,78.49
2023-04-08T01:53:25.028Z,78.58
2023-04-08T01:53:46.177Z,78.45
2023-04-08T01:53:58.245Z,78.67
2023-04-08T01:54:10.399Z,78.52
2023-04-08T01:54:22.447Z,78.44
2023-04-08T01:54:35.252Z,78.15
2023-04-08T01:54:47.812Z,78.83
2023-04-08T01:54:59.851Z,78.71
2023-04-08T01:55:12.144Z,78.70
2023-04-08T01:55:25.995Z,78.59
2023-04-08T01:55:40.295Z,78.43
2023-04-08T01:55:57.607Z,78.65
2023-04-08T01:56:13.317Z,78.76
2023-04-08T01:56:29.264Z,78.94
2023-04-08T01:56:42.440Z,79.16
2023-04-08T01:56:56.660Z,79.22
2023-04-08T01:57:14.263Z,79.17
2023-04-08T01:57:31.862Z,79.13
2023-04-08T01:57:47.781Z,79.22
2023-04-08T01:58:01.302Z,79.58
2023-04-08T01:58:19.926Z,79.90
2023-04-08T01:58:43.208Z,80.14
2023-04-08T01:58:58.846Z,80.17
2023-04-08T01:59:15.876Z,80.37
2023-04-08T01:59:32.705Z,80.34
2023-04-08T01:59:50.396Z,80.25
2023-04-08T02:00:07.489Z,80.34
2023-04-08T02:00:24.145Z,80.23
2023-04-08T02:00:37.388Z,80.07
2023-04-08T02:00:51.798Z,80.17
2023-04-08T02:01:10.252Z,80.09
2023-04-08T02:01:25.613Z,80.19
2023-04-08T02:01:37.928Z,80.51
2023-04-08T02:01:52.035Z,80.47
2023-04-08T02:02:07.086Z,80.46
2023-04-08T02:02:22.789Z,80.35
2023-04-08T02:02:37.292Z,80.66
2023-04-08T02:02:51.072Z,80.98
2023-04-08T02:03:06.511Z,80.10
2023-04-08T02:03:21.762Z,80.79
2023-04-08T02:03:35.829Z,81.33
2023-04-08T02:04:01.040Z,80.72
2023-04-08T02:04:13.929Z,80.53
2023-04-08T02:04:26.091Z,80.69
2023-04-08T02:04:38.430Z,80.31
2023-04-08T02:04:50.533Z,79.87
2023-04-08T02:05:02.907Z,79.66
2023-04-08T02:05:14.999Z,80.00
2023-04-08T02:05:27.062Z,80.80
2023-04-08T02:05:40.159Z,81.11
2023-04-08T02:05:52.266Z,81.26
2023-04-08T02:06:05.236Z,81.22
2023-04-08T02:06:17.567Z,81.72
2023-04-08T02:06:31.108Z,81.93
2023-04-08T02:06:43.896Z,82.10
2023-04-08T02:06:56.694Z,81.95
2023-04-08T02:07:09.456Z,81.32
2023-04-08T02:07:21.726Z,80.75
2023-04-08T02:07:33.745Z,80.75
2023-04-08T02:07:47.788Z,80.91
2023-04-08T02:07:59.810Z,81.31
2023-04-08T02:08:12.872Z,81.55
2023-04-08T02:08:24.816Z,80.95
2023-04-08T02:08:36.810Z,81.08
2023-04-08T02:08:50.266Z,81.61
2023-04-08T02:09:05.822Z,82.03
2023-04-08T02:09:17.889Z,81.84
2023-04-08T02:09:29.873Z,82.21
2023-04-08T02:09:42.427Z,82.18
2023-04-08T02:09:54.365Z,81.68
2023-04-08T02:10:07.182Z,82.06
2023-04-08T02:10:19.101Z,82.48
2023-04-08T02:10:31.035Z,82.68
2023-04-08T02:10:42.940Z,82.85
2023-04-08T02:10:54.830Z,83.10
2023-04-08T02:11:06.907Z,83.19
2023-04-08T02:11:18.848Z,83.40
2023-04-08T02:11:31.719Z,83.30
2023-04-08T02:11:43.667Z,83.15
2023-04-08T02:11:57.698Z,83.40
2023-04-08T02:12:09.756Z,83.54
2023-04-08T02:12:22.222Z,83.46
2023-04-08T02:12:34.606Z,83.22
2023-04-08T02:12:47.392Z,83.41
2023-04-08T02:12:59.405Z,83.65
2023-04-08T02:13:11.831Z,83.44
2023-04-08T02:13:23.862Z,83.23
2023-04-08T02:13:35.934Z,83.53
2023-04-08T02:13:49.006Z,83.07
2023-04-08T02:14:01.312Z,83.00
2023-04-08T02:14:13.381Z,82.88
2023-04-08T02:14:26.333Z,83.22
2023-04-08T02:14:38.474Z,83.14
2023-04-08T02:14:50.756Z,83.02
2023-04-08T02:15:02.900Z,83.13
2023-04-08T02:15:15.713Z,83.77
2023-04-08T02:15:34.020Z,84.37
2023-04-08T02:15:53.446Z,85.14
2023-04-08T02:16:31.436Z,84.64
2023-04-08T02:16:56.361Z,84.49
2023-04-08T02:17:21.403Z,84.91
2023-04-08T02:17:46.074Z,85.07
2023-04-08T02:18:08.892Z,85.53
2023-04-08T02:18:27.467Z,85.21
2023-04-08T02:18:44.521Z,85.78
2023-04-08T02:19:08.863Z,85.42
2023-04-08T02:19:34.805Z,84.96
2023-04-08T02:19:59.681Z,84.57
2023-04-08T02:20:18.592Z,83.37
2023-04-08T02:20:38.696Z,83.01
2023-04-08T02:20:57.514Z,82.80
2023-04-08T02:21:13.313Z,82.76
2023-04-08T02:21:34.334Z,82.17
2023-04-08T02:21:52.358Z,82.00
2023-04-08T02:22:19.508Z,82.25
2023-04-08T02:22:35.230Z,82.88
2023-04-08T02:23:09.090Z,83.96
2023-04-08T02:23:24.387Z,83.42
2023-04-08T02:23:39.843Z,83.61
2023-04-08T02:23:52.074Z,83.77
2023-04-08T02:24:10.980Z,83.95
2023-04-08T02:24:23.314Z,83.66
2023-04-08T02:24:36.401Z,83.98
2023-04-08T02:24:49.940Z,84.26
2023-04-08T02:25:04.777Z,84.17
2023-04-08T02:25:21.650Z,84.18
2023-04-08T02:25:37.593Z,84.09
2023-04-08T02:25:50.642Z,83.89
2023-04-08T02:26:04.726Z,83.89
2023-04-08T02:26:18.999Z,83.63
2023-04-08T02:26:34.323Z,83.53
2023-04-08T02:26:50.338Z,83.70
2023-04-08T02:27:04.188Z,83.52
2023-04-08T02:27:19.545Z,83.68
2023-04-08T02:27:34.564Z,83.74
2023-04-08T02:27:49.209Z,83.49
2023-04-08T02:28:04.476Z,83.39
2023-04-08T02:28:18.867Z,84.28
2023-04-08T02:28:32.244Z,83.80
2023-04-08T02:28:44.903Z,83.83
2023-04-08T02:28:57.643Z,83.96
2023-04-08T02:29:16.784Z,84.48
2023-04-08T02:29:31.428Z,83.57
2023-04-08T02:29:45.314Z,83.66
2023-04-08T02:29:58.687Z,83.67
2023-04-08T02:30:12.104Z,83.87
2023-04-08T02:30:27.673Z,83.74
2023-04-08T02:30:44.100Z,83.81
2023-04-08T02:30:58.054Z,84.30
2023-04-08T02:31:14.854Z,84.41
2023-04-08T02:31:26.924Z,84.64
2023-04-08T02:31:41.823Z,84.51
2023-04-08T02:31:55.133Z,83.62
2023-04-08T02:32:10.940Z,84.55
2023-04-08T02:32:25.256Z,84.84
2023-04-08T02:32:38.870Z,84.99
2023-04-08T02:32:53.845Z,84.70
2023-04-08T02:33:07.958Z,84.84
2023-04-08T02:33:22.420Z,85.62
2023-04-08T02:33:35.408Z,84.84
2023-04-08T02:33:49.924Z,84.45
2023-04-08T02:34:02.514Z,83.73
2023-04-08T02:34:16.220Z,83.79
2023-04-08T02:34:30.233Z,84.32
2023-04-08T02:34:43.426Z,84.67
2023-04-08T02:34:56.577Z,85.31
2023-04-08T02:35:11.482Z,85.14
2023-04-08T02:35:24.438Z,85.58
2023-04-08T02:35:37.499Z,85.19
2023-04-08T02:35:55.929Z,84.91
2023-04-08T02:36:09.205Z,85.30
2023-04-08T02:36:22.336Z,85.10
2023-04-08T02:36:34.605Z,84.28
2023-04-08T02:36:48.024Z,84.47
2023-04-08T02:36:59.984Z,84.71
2023-04-08T02:37:12.490Z,85.09
2023-04-08T02:37:24.623Z,84.41
2023-04-08T02:37:36.779Z,84.61
2023-04-08T02:37:48.943Z,84.50
2023-04-08T02:38:00.914Z,84.55
2023-04-08T02:38:13.042Z,84.76
2023-04-08T02:38:29.744Z,84.90
2023-04-08T02:38:41.874Z,84.79
2023-04-08T02:38:53.872Z,85.27
2023-04-08T02:39:05.959Z,85.10
2023-04-08T02:39:18.063Z,84.95
2023-04-08T02:39:35.662Z,85.13
2023-04-08T02:39:47.738Z,84.93
2023-04-08T02:40:00.542Z,84.55
2023-04-08T02:40:33.476Z,83.79
2023-04-08T02:40:45.543Z,84.09
2023-04-08T02:40:57.707Z,84.30
2023-04-08T02:41:09.672Z,84.56
2023-04-08T02:41:21.656Z,84.64
2023-04-08T02:41:33.755Z,85.08
2023-04-08T02:41:45.720Z,84.85
2023-04-08T02:41:57.662Z,85.12
2023-04-08T02:42:11.703Z,85.25
2023-04-08T02:42:23.967Z,85.16
2023-04-08T02:42:35.924Z,84.79
2023-04-08T02:42:47.860Z,84.90
2023-04-08T02:43:00.491Z,84.91
2023-04-08T02:43:12.402Z,84.75
2023-04-08T02:43:32.306Z,84.74
2023-04-08T02:43:44.282Z,84.58
2023-04-08T02:43:56.298Z,84.41
2023-04-08T02:44:09.761Z,84.21
2023-04-08T02:44:21.662Z,83.76
2023-04-08T02:44:33.718Z,83.72
2023-04-08T02:44:45.812Z,83.69
2023-04-08T02:44:57.844Z,83.75
2023-04-08T02:45:10.170Z,83.23
2023-04-08T02:45:22.621Z,83.49
2023-04-08T02:45:44.886Z,84.16
2023-04-08T02:45:57.423Z,83.87
2023-04-08T02:46:11.579Z,83.89
2023-04-08T02:46:23.887Z,83.67
2023-04-08T02:46:35.883Z,83.76
2023-04-08T02:46:47.782Z,83.51
2023-04-08T02:46:59.840Z,83.34
2023-04-08T02:47:11.780Z,83.32
2023-04-08T02:47:23.839Z,83.18
2023-04-08T02:47:35.929Z,83.52
2023-04-08T02:47:48.140Z,83.32
2023-04-08T02:48:01.477Z,83.39
2023-04-08T02:48:13.547Z,83.39
2023-04-08T02:48:25.783Z,83.63
2023-04-08T02:48:37.792Z,84.05
2023-04-08T02:48:50.261Z,84.53
2023-04-08T02:49:02.249Z,84.55
2023-04-08T02:49:14.438Z,84.56
2023-04-08T02:49:26.418Z,84.65
2023-04-08T02:49:38.425Z,84.52
2023-04-08T02:49:55.343Z,84.06
2023-04-08T02:50:07.672Z,83.99
2023-04-08T02:50:19.728Z,83.73
2023-04-08T02:50:31.744Z,83.46
2023-04-08T02:50:43.675Z,82.99
2023-04-08T02:50:55.724Z,83.04
2023-04-08T02:51:08.381Z,82.79
2023-04-08T02:51:20.303Z,82.73
2023-04-08T02:51:33.213Z,82.42
2023-04-08T02:51:45.281Z,82.61
2023-04-08T02:51:57.222Z,82.54
2023-04-08T02:52:09.175Z,82.35
2023-04-08T02:52:21.306Z,82.13
2023-04-08T02:52:33.258Z,82.37
2023-04-08T02:52:45.359Z,82.61
2023-04-08T02:52:57.388Z,82.84
2023-04-08T02:53:09.687Z,83.17
2023-04-08T02:53:23.544Z,83.57
2023-04-08T02:53:35.529Z,83.64
2023-04-08T02:53:47.463Z,84.39
2023-04-08T02:53:59.385Z,83.89
2023-04-08T02:54:11.326Z,84.06
2023-04-08T02:54:23.282Z,83.86
2023-04-08T02:54:35.504Z,83.93
2023-04-08T02:54:47.427Z,83.82
2023-04-08T02:54:59.571Z,83.93
2023-04-08T02:55:11.622Z,83.69
2023-04-08T02:55:23.801Z,83.59
2023-04-08T02:55:35.775Z,83.67
2023-04-08T02:55:47.802Z,83.18
2023-04-08T02:55:59.703Z,83.50
2023-04-08T02:56:12.186Z,83.44
2023-04-08T02:56:24.146Z,83.22
2023-04-08T02:56:36.514Z,83.18
2023-04-08T02:56:48.414Z,83.08
2023-04-08T02:57:00.858Z,83.04
2023-04-08T02:57:12.993Z,82.91
2023-04-08T02:57:24.933Z,83.00
2023-04-08T02:57:39.374Z,82.78
2023-04-08T02:57:51.323Z,82.65
2023-04-08T02:58:03.381Z,82.84
2023-04-08T02:58:15.955Z,83.31
2023-04-08T02:58:28.128Z,83.47
2023-04-08T02:58:40.214Z,83.42
2023-04-08T02:58:52.383Z,83.47
2023-04-08T02:59:04.298Z,83.11